ITY107 LIPZ-LPPT
Flight info
| Callsign | ITY107 |
|---|---|
| Flight time | 2h 46m |
| Altitude | 19000 |
| Route | AKADO M196 KOPER/N0469F390 DCT IBTOK DCT OSBUL DCT GEKBA DCT VAMTU DCT KOLON DCT GANGU DCT PADKO DCT DIVKO DCT NILDU DCT NENDA DCT BCN DCT ANTON DCT XIKEN DCT OSLAP DCT SALAS DCT RAMON DCT NEXAS DCT DISVU DCT ADUXO N975 PALIO DCT AKOKI DCT GOTOR DCT TLD DCT NATPA DCT MELON DCT CCS DCT ELVAR DCT UPULO |
| Aircraft | A339/H-SADE1E2E3GHIJ3J5M1P2RWXY/LB2D1 |
Departure
| Time | 2026-05-06 17:02 |
|---|---|
| Airport | Venice Marco Polo Airport (LIPZ) |
Arrival
| Time | 2026-05-06 19:49 |
|---|---|
| Airport | Lisbon Humberto Delgado Airport (LPPT) |
| Time | Latitude | Longitude | Altitude | Speed | Heading |
|---|---|---|---|---|---|
| 2026-05-06 16:29 | 45.50548 | 12.34223 | 25 ft | 0 kts | 267° |
| 2026-05-06 16:53 | 45.50548 | 12.34230 | 21 ft | 1 kts | 267° |
| 2026-05-06 16:54 | 45.50548 | 12.34243 | 27 ft | 1 kts | 260° |
| 2026-05-06 16:54 | 45.50549 | 12.34255 | 27 ft | 1 kts | 255° |
| 2026-05-06 16:54 | 45.50551 | 12.34267 | 23 ft | 1 kts | 250° |
| 2026-05-06 16:54 | 45.50554 | 12.34279 | 25 ft | 1 kts | 241° |
| 2026-05-06 16:55 | 45.50558 | 12.34291 | 26 ft | 1 kts | 232° |
| 2026-05-06 16:55 | 45.50564 | 12.34303 | 26 ft | 2 kts | 221° |
| 2026-05-06 16:55 | 45.50575 | 12.34316 | 26 ft | 3 kts | 210° |
| 2026-05-06 16:55 | 45.50589 | 12.34328 | 26 ft | 2 kts | 191° |
| 2026-05-06 16:56 | 45.50600 | 12.34333 | 25 ft | 0 kts | 172° |
| 2026-05-06 16:58 | 45.50595 | 12.34334 | 26 ft | 5 kts | 172° |
| 2026-05-06 16:58 | 45.50528 | 12.34342 | 25 ft | 13 kts | 176° |
| 2026-05-06 16:58 | 45.50428 | 12.34350 | 26 ft | 16 kts | 177° |
| 2026-05-06 16:59 | 45.50309 | 12.34356 | 30 ft | 19 kts | 179° |
| 2026-05-06 16:59 | 45.50148 | 12.34359 | 22 ft | 26 kts | 181° |
| 2026-05-06 16:59 | 45.50064 | 12.34269 | 19 ft | 17 kts | 223° |
| 2026-05-06 16:59 | 45.49956 | 12.34129 | 16 ft | 24 kts | 222° |
| 2026-05-06 17:00 | 45.49824 | 12.33957 | 17 ft | 28 kts | 222° |
| 2026-05-06 17:00 | 45.49674 | 12.33766 | 23 ft | 30 kts | 221° |
| 2026-05-06 17:00 | 45.49572 | 12.33638 | 21 ft | 16 kts | 221° |
| 2026-05-06 17:00 | 45.49514 | 12.33619 | 22 ft | 2 kts | 157° |
| 2026-05-06 17:01 | 45.49486 | 12.33646 | 23 ft | 0 kts | 134° |
| 2026-05-06 17:01 | 45.49466 | 12.33675 | 21 ft | 8 kts | 134° |
| 2026-05-06 17:01 | 45.49434 | 12.33778 | 19 ft | 14 kts | 87° |
| 2026-05-06 17:01 | 45.49495 | 12.33874 | 18 ft | 16 kts | 43° |
| 2026-05-06 17:02 | 45.49692 | 12.34136 | 15 ft | 88 kts | 43° |
| 2026-05-06 17:02 | 45.50402 | 12.35049 | 89 ft | 177 kts | 42° |
| 2026-05-06 17:02 | 45.51402 | 12.36312 | 765 ft | 200 kts | 43° |
| 2026-05-06 17:02 | 45.52386 | 12.37663 | 1993 ft | 196 kts | 47° |
| 2026-05-06 17:03 | 45.53345 | 12.39167 | 2854 ft | 213 kts | 59° |
| 2026-05-06 17:03 | 45.53804 | 12.41179 | 3597 ft | 218 kts | 89° |
| 2026-05-06 17:03 | 45.53681 | 12.43327 | 3907 ft | 219 kts | 103° |
| 2026-05-06 17:03 | 45.53361 | 12.45450 | 3993 ft | 219 kts | 106° |
| 2026-05-06 17:04 | 45.53029 | 12.47565 | 4003 ft | 218 kts | 105° |
| 2026-05-06 17:04 | 45.52738 | 12.49698 | 4054 ft | 222 kts | 103° |
| 2026-05-06 17:04 | 45.52397 | 12.51848 | 4498 ft | 223 kts | 116° |
| 2026-05-06 17:04 | 45.51439 | 12.53508 | 5490 ft | 214 kts | 150° |
| 2026-05-06 17:05 | 45.50093 | 12.54143 | 6596 ft | 204 kts | 182° |
| 2026-05-06 17:05 | 45.48698 | 12.53829 | 7540 ft | 208 kts | 196° |
| 2026-05-06 17:05 | 45.47217 | 12.53349 | 8124 ft | 229 kts | 195° |
| 2026-05-06 17:05 | 45.45585 | 12.52867 | 8605 ft | 250 kts | 194° |
| 2026-05-06 17:06 | 45.43809 | 12.52403 | 9163 ft | 265 kts | 193° |
| 2026-05-06 17:06 | 45.41977 | 12.51965 | 10052 ft | 268 kts | 192° |
| 2026-05-06 17:06 | 45.40740 | 12.51678 | 10471 ft | 277 kts | 192° |
| 2026-05-06 17:06 | 45.38755 | 12.51212 | 10755 ft | 301 kts | 192° |
| 2026-05-06 17:07 | 45.35935 | 12.50377 | 11270 ft | 319 kts | 202° |
| 2026-05-06 17:07 | 45.34046 | 12.48762 | 12085 ft | 319 kts | 221° |
| 2026-05-06 17:07 | 45.33042 | 12.47178 | 12582 ft | 323 kts | 234° |
| 2026-05-06 17:07 | 45.32111 | 12.44254 | 13379 ft | 329 kts | 251° |
| 2026-05-06 17:08 | 45.31506 | 12.41139 | 14049 ft | 333 kts | 252° |
| 2026-05-06 17:08 | 45.30884 | 12.37966 | 14769 ft | 334 kts | 252° |
| 2026-05-06 17:08 | 45.30244 | 12.34781 | 15464 ft | 337 kts | 252° |
| 2026-05-06 17:08 | 45.29592 | 12.31591 | 16256 ft | 336 kts | 251° |
| 2026-05-06 17:09 | 45.28931 | 12.28394 | 16907 ft | 339 kts | 251° |
| 2026-05-06 17:09 | 45.28260 | 12.25168 | 17603 ft | 342 kts | 251° |
| 2026-05-06 17:09 | 45.27581 | 12.21915 | 18266 ft | 345 kts | 251° |
| 2026-05-06 17:09 | 45.26898 | 12.18640 | 18849 ft | 347 kts | 251° |
| 2026-05-06 17:10 | 45.26211 | 12.15346 | 19461 ft | 350 kts | 251° |
| 2026-05-06 17:10 | 45.25517 | 12.12024 | 20072 ft | 352 kts | 251° |
| 2026-05-06 17:10 | 45.24818 | 12.08683 | 20693 ft | 355 kts | 251° |
| 2026-05-06 17:10 | 45.24112 | 12.05310 | 21299 ft | 358 kts | 251° |
| 2026-05-06 17:11 | 45.23400 | 12.01916 | 21937 ft | 360 kts | 251° |
| 2026-05-06 17:11 | 45.22687 | 11.98517 | 22703 ft | 360 kts | 251° |
| 2026-05-06 17:11 | 45.21969 | 11.95105 | 23287 ft | 364 kts | 251° |
| 2026-05-06 17:11 | 45.21241 | 11.91649 | 23838 ft | 366 kts | 251° |
| 2026-05-06 17:12 | 45.20511 | 11.88187 | 24410 ft | 367 kts | 250° |
| 2026-05-06 17:12 | 45.19777 | 11.84712 | 24971 ft | 369 kts | 250° |
| 2026-05-06 17:12 | 45.19040 | 11.81231 | 25511 ft | 371 kts | 250° |
| 2026-05-06 17:12 | 45.18296 | 11.77721 | 26050 ft | 373 kts | 250° |
| 2026-05-06 17:13 | 45.17547 | 11.74192 | 26583 ft | 375 kts | 250° |
| 2026-05-06 17:13 | 45.16791 | 11.70639 | 27061 ft | 378 kts | 250° |
| 2026-05-06 17:13 | 45.16026 | 11.67057 | 27534 ft | 381 kts | 250° |
| 2026-05-06 17:13 | 45.15258 | 11.63455 | 28061 ft | 383 kts | 250° |
| 2026-05-06 17:14 | 45.14440 | 11.59865 | 28534 ft | 384 kts | 248° |
| 2026-05-06 17:14 | 45.13572 | 11.56287 | 29269 ft | 381 kts | 247° |
| 2026-05-06 17:14 | 45.12712 | 11.52781 | 29787 ft | 382 kts | 247° |
| 2026-05-06 17:14 | 45.11837 | 11.49203 | 30153 ft | 386 kts | 247° |
| 2026-05-06 17:15 | 45.10957 | 11.45580 | 30553 ft | 389 kts | 247° |
| 2026-05-06 17:15 | 45.10080 | 11.41950 | 30941 ft | 392 kts | 247° |
| 2026-05-06 17:15 | 45.09194 | 11.38285 | 31337 ft | 394 kts | 247° |
| 2026-05-06 17:15 | 45.08304 | 11.34603 | 31718 ft | 397 kts | 247° |
| 2026-05-06 17:16 | 45.07406 | 11.30889 | 32096 ft | 400 kts | 247° |
| 2026-05-06 17:16 | 45.06500 | 11.27155 | 32446 ft | 402 kts | 247° |
| 2026-05-06 17:16 | 45.05587 | 11.23394 | 32759 ft | 405 kts | 247° |
| 2026-05-06 17:16 | 45.04669 | 11.19622 | 33019 ft | 406 kts | 247° |
| 2026-05-06 17:17 | 45.03746 | 11.15836 | 33250 ft | 408 kts | 247° |
| 2026-05-06 17:17 | 45.02815 | 11.12023 | 33423 ft | 410 kts | 247° |
| 2026-05-06 17:17 | 45.01882 | 11.08206 | 33658 ft | 411 kts | 247° |
| 2026-05-06 17:17 | 45.00950 | 11.04399 | 33926 ft | 410 kts | 247° |
| 2026-05-06 17:18 | 45.00017 | 11.00596 | 34143 ft | 410 kts | 247° |
| 2026-05-06 17:18 | 44.99079 | 10.96781 | 34326 ft | 410 kts | 247° |
| 2026-05-06 17:18 | 44.98142 | 10.92976 | 34528 ft | 411 kts | 247° |
| 2026-05-06 17:18 | 44.97202 | 10.89164 | 34733 ft | 411 kts | 247° |
| 2026-05-06 17:19 | 44.96272 | 10.85401 | 34938 ft | 411 kts | 247° |
| 2026-05-06 17:19 | 44.95315 | 10.81537 | 35147 ft | 412 kts | 247° |
| 2026-05-06 17:19 | 44.94369 | 10.77721 | 35356 ft | 412 kts | 248° |
| 2026-05-06 17:19 | 44.93433 | 10.73954 | 35558 ft | 412 kts | 248° |
| 2026-05-06 17:20 | 44.92485 | 10.70140 | 35805 ft | 412 kts | 248° |
| 2026-05-06 17:20 | 44.91533 | 10.66318 | 36005 ft | 412 kts | 248° |
| 2026-05-06 17:20 | 44.90580 | 10.62500 | 36210 ft | 413 kts | 248° |
| 2026-05-06 17:20 | 44.89624 | 10.58680 | 36405 ft | 413 kts | 248° |
| 2026-05-06 17:21 | 44.88661 | 10.54853 | 36536 ft | 415 kts | 248° |
| 2026-05-06 17:21 | 44.87695 | 10.51013 | 36723 ft | 416 kts | 248° |
| 2026-05-06 17:21 | 44.86728 | 10.47169 | 36915 ft | 416 kts | 248° |
| 2026-05-06 17:21 | 44.85758 | 10.43321 | 37108 ft | 417 kts | 248° |
| 2026-05-06 17:22 | 44.84786 | 10.39470 | 37304 ft | 417 kts | 248° |
| 2026-05-06 17:22 | 44.83811 | 10.35619 | 37487 ft | 417 kts | 248° |
| 2026-05-06 17:22 | 44.82834 | 10.31768 | 37664 ft | 418 kts | 248° |
| 2026-05-06 17:22 | 44.81898 | 10.27887 | 37923 ft | 418 kts | 251° |
| 2026-05-06 17:23 | 44.81098 | 10.23999 | 38124 ft | 418 kts | 251° |
| 2026-05-06 17:23 | 44.80287 | 10.20063 | 38328 ft | 419 kts | 251° |
| 2026-05-06 17:23 | 44.79471 | 10.16118 | 38499 ft | 419 kts | 251° |
| 2026-05-06 17:23 | 44.78654 | 10.12180 | 38647 ft | 419 kts | 251° |
| 2026-05-06 17:24 | 44.77833 | 10.08236 | 38787 ft | 420 kts | 251° |
| 2026-05-06 17:24 | 44.76186 | 10.00349 | 38835 ft | 420 kts | 251° |
| 2026-05-06 17:25 | 44.74545 | 9.92510 | 38839 ft | 412 kts | 251° |
| 2026-05-06 17:25 | 44.72920 | 9.84796 | 38833 ft | 417 kts | 251° |
| 2026-05-06 17:26 | 44.71262 | 9.76961 | 38835 ft | 417 kts | 251° |
| 2026-05-06 17:26 | 44.69603 | 9.69149 | 38832 ft | 416 kts | 251° |
| 2026-05-06 17:27 | 44.67939 | 9.61341 | 38835 ft | 417 kts | 251° |
| 2026-05-06 17:27 | 44.66270 | 9.53538 | 38843 ft | 417 kts | 251° |
| 2026-05-06 17:28 | 44.64603 | 9.45770 | 38851 ft | 419 kts | 251° |
| 2026-05-06 17:28 | 44.62901 | 9.37875 | 38850 ft | 423 kts | 251° |
| 2026-05-06 17:29 | 44.61192 | 9.29979 | 38849 ft | 423 kts | 251° |
| 2026-05-06 17:29 | 44.59478 | 9.22078 | 38855 ft | 422 kts | 251° |
| 2026-05-06 17:30 | 44.57760 | 9.14198 | 38857 ft | 422 kts | 251° |
| 2026-05-06 17:30 | 44.56033 | 9.06304 | 38852 ft | 425 kts | 251° |
| 2026-05-06 17:31 | 44.54289 | 8.98365 | 38873 ft | 426 kts | 251° |
| 2026-05-06 17:31 | 44.52540 | 8.90426 | 38873 ft | 426 kts | 251° |
| 2026-05-06 17:32 | 44.50783 | 8.82485 | 38876 ft | 427 kts | 250° |
| 2026-05-06 17:32 | 44.49021 | 8.74550 | 38890 ft | 427 kts | 250° |
| 2026-05-06 17:33 | 44.47249 | 8.66600 | 38875 ft | 428 kts | 251° |
| 2026-05-06 17:33 | 44.45485 | 8.58710 | 38863 ft | 428 kts | 251° |
| 2026-05-06 17:34 | 44.43690 | 8.50716 | 38851 ft | 428 kts | 251° |
| 2026-05-06 17:34 | 44.41911 | 8.42826 | 38810 ft | 428 kts | 251° |
| 2026-05-06 17:35 | 44.40113 | 8.34882 | 38808 ft | 428 kts | 250° |
| 2026-05-06 17:35 | 44.38325 | 8.27006 | 38800 ft | 422 kts | 250° |
| 2026-05-06 17:36 | 44.35641 | 8.15242 | 38798 ft | 423 kts | 250° |
| 2026-05-06 17:36 | 44.33858 | 8.07458 | 38798 ft | 424 kts | 250° |
| 2026-05-06 17:37 | 44.32062 | 7.99641 | 38800 ft | 421 kts | 250° |
| 2026-05-06 17:37 | 44.30259 | 7.91825 | 38801 ft | 424 kts | 250° |
| 2026-05-06 17:38 | 44.28323 | 7.84065 | 38806 ft | 422 kts | 245° |
| 2026-05-06 17:38 | 44.25372 | 7.76961 | 38805 ft | 423 kts | 234° |
| 2026-05-06 17:39 | 44.21414 | 7.70933 | 38810 ft | 425 kts | 223° |
| 2026-05-06 17:39 | 44.16965 | 7.65520 | 38812 ft | 424 kts | 223° |
| 2026-05-06 17:40 | 44.12812 | 7.59828 | 38817 ft | 421 kts | 229° |
| 2026-05-06 17:40 | 44.08964 | 7.53615 | 38819 ft | 425 kts | 230° |
| 2026-05-06 17:41 | 44.05086 | 7.47398 | 38820 ft | 424 kts | 230° |
| 2026-05-06 17:41 | 44.01205 | 7.41207 | 38823 ft | 425 kts | 229° |
| 2026-05-06 17:42 | 43.97318 | 7.35024 | 38818 ft | 423 kts | 229° |
| 2026-05-06 17:42 | 43.93440 | 7.28864 | 38827 ft | 424 kts | 229° |
| 2026-05-06 17:43 | 43.89561 | 7.22715 | 38828 ft | 422 kts | 229° |
| 2026-05-06 17:43 | 43.85679 | 7.16562 | 38832 ft | 424 kts | 229° |
| 2026-05-06 17:44 | 43.81813 | 7.10456 | 38832 ft | 422 kts | 229° |
| 2026-05-06 17:44 | 43.77927 | 7.04337 | 38830 ft | 422 kts | 229° |
| 2026-05-06 17:45 | 43.74186 | 6.98089 | 38840 ft | 421 kts | 234° |
| 2026-05-06 17:45 | 43.71116 | 6.91190 | 38838 ft | 423 kts | 242° |
| 2026-05-06 17:46 | 43.68741 | 6.83700 | 38868 ft | 429 kts | 247° |
| 2026-05-06 17:46 | 43.66505 | 6.76006 | 38853 ft | 433 kts | 246° |
| 2026-05-06 17:47 | 43.64255 | 6.68375 | 38866 ft | 425 kts | 246° |
| 2026-05-06 17:47 | 43.62040 | 6.60911 | 38861 ft | 419 kts | 246° |
| 2026-05-06 17:48 | 43.59818 | 6.53446 | 38878 ft | 421 kts | 246° |
| 2026-05-06 17:48 | 43.57588 | 6.45975 | 38902 ft | 420 kts | 246° |
| 2026-05-06 17:49 | 43.55350 | 6.38500 | 38885 ft | 422 kts | 246° |
| 2026-05-06 17:49 | 43.53109 | 6.31034 | 38888 ft | 422 kts | 246° |
| 2026-05-06 17:50 | 43.50862 | 6.23569 | 38887 ft | 422 kts | 246° |
| 2026-05-06 17:50 | 43.48609 | 6.16107 | 38887 ft | 421 kts | 246° |
| 2026-05-06 17:51 | 43.46363 | 6.08691 | 38889 ft | 421 kts | 246° |
| 2026-05-06 17:51 | 43.44102 | 6.01242 | 38888 ft | 422 kts | 246° |
| 2026-05-06 17:52 | 43.41828 | 5.93782 | 38894 ft | 423 kts | 246° |
| 2026-05-06 17:52 | 43.39550 | 5.86326 | 38906 ft | 423 kts | 246° |
| 2026-05-06 17:53 | 43.37266 | 5.78869 | 38908 ft | 423 kts | 246° |
| 2026-05-06 17:53 | 43.35361 | 5.72669 | 38918 ft | 424 kts | 246° |
| 2026-05-06 17:54 | 43.33060 | 5.65197 | 38907 ft | 425 kts | 246° |
| 2026-05-06 17:54 | 43.30748 | 5.57716 | 38912 ft | 426 kts | 246° |
| 2026-05-06 17:55 | 43.28434 | 5.50241 | 38914 ft | 425 kts | 246° |
| 2026-05-06 17:55 | 43.26114 | 5.42776 | 38915 ft | 425 kts | 246° |
| 2026-05-06 17:56 | 43.23807 | 5.35369 | 38916 ft | 425 kts | 246° |
| 2026-05-06 17:56 | 43.21470 | 5.27885 | 38914 ft | 429 kts | 246° |
| 2026-05-06 17:57 | 43.19117 | 5.20377 | 38915 ft | 428 kts | 246° |
| 2026-05-06 17:57 | 43.16759 | 5.12875 | 38917 ft | 428 kts | 246° |
| 2026-05-06 17:58 | 43.14397 | 5.05379 | 38920 ft | 428 kts | 246° |
| 2026-05-06 17:58 | 43.12047 | 4.97942 | 38916 ft | 428 kts | 246° |
| 2026-05-06 17:59 | 43.09679 | 4.90471 | 38924 ft | 428 kts | 246° |
| 2026-05-06 17:59 | 43.07189 | 4.83084 | 38922 ft | 427 kts | 241° |
| 2026-05-06 18:00 | 43.03864 | 4.76343 | 38925 ft | 428 kts | 232° |
| 2026-05-06 18:00 | 42.99705 | 4.70507 | 38931 ft | 430 kts | 223° |
| 2026-05-06 18:01 | 42.95204 | 4.65119 | 38930 ft | 430 kts | 224° |
| 2026-05-06 18:01 | 42.90715 | 4.59703 | 38933 ft | 430 kts | 224° |
| 2026-05-06 18:02 | 42.86253 | 4.54326 | 38933 ft | 431 kts | 224° |
| 2026-05-06 18:02 | 42.81749 | 4.48916 | 38927 ft | 431 kts | 223° |
| 2026-05-06 18:03 | 42.77245 | 4.43518 | 38932 ft | 431 kts | 223° |
| 2026-05-06 18:03 | 42.72761 | 4.38154 | 38937 ft | 431 kts | 223° |
| 2026-05-06 18:04 | 42.68247 | 4.32764 | 38936 ft | 432 kts | 223° |
| 2026-05-06 18:04 | 42.63726 | 4.27378 | 38939 ft | 432 kts | 223° |
| 2026-05-06 18:05 | 42.59208 | 4.22006 | 38941 ft | 432 kts | 223° |
| 2026-05-06 18:05 | 42.54684 | 4.16636 | 38937 ft | 433 kts | 223° |
| 2026-05-06 18:06 | 42.50149 | 4.11267 | 38944 ft | 432 kts | 223° |
| 2026-05-06 18:06 | 42.45641 | 4.05939 | 38948 ft | 432 kts | 223° |
| 2026-05-06 18:07 | 42.41106 | 4.00588 | 38946 ft | 432 kts | 223° |
| 2026-05-06 18:07 | 42.36567 | 3.95244 | 38947 ft | 432 kts | 223° |
| 2026-05-06 18:08 | 42.32025 | 3.89907 | 38942 ft | 429 kts | 223° |
| 2026-05-06 18:08 | 42.27581 | 3.84558 | 38946 ft | 428 kts | 227° |
| 2026-05-06 18:09 | 42.23685 | 3.78502 | 38953 ft | 429 kts | 235° |
| 2026-05-06 18:09 | 42.20275 | 3.71970 | 38950 ft | 428 kts | 236° |
| 2026-05-06 18:10 | 42.16836 | 3.65418 | 38950 ft | 428 kts | 236° |
| 2026-05-06 18:10 | 42.13378 | 3.58875 | 38943 ft | 427 kts | 236° |
| 2026-05-06 18:11 | 42.09938 | 3.52385 | 38947 ft | 425 kts | 236° |
| 2026-05-06 18:11 | 42.06494 | 3.45901 | 38951 ft | 426 kts | 236° |
| 2026-05-06 18:12 | 42.03068 | 3.39463 | 38952 ft | 426 kts | 236° |
| 2026-05-06 18:12 | 41.99615 | 3.32988 | 38954 ft | 426 kts | 235° |
| 2026-05-06 18:13 | 41.96159 | 3.26523 | 38957 ft | 426 kts | 235° |
| 2026-05-06 18:13 | 41.92694 | 3.20055 | 38950 ft | 423 kts | 236° |
| 2026-05-06 18:14 | 41.89258 | 3.13654 | 38952 ft | 423 kts | 236° |
| 2026-05-06 18:14 | 41.85809 | 3.07240 | 38952 ft | 423 kts | 235° |
| 2026-05-06 18:15 | 41.82384 | 3.00887 | 38957 ft | 423 kts | 235° |
| 2026-05-06 18:15 | 41.78930 | 2.94494 | 38952 ft | 423 kts | 235° |
| 2026-05-06 18:16 | 41.75475 | 2.88109 | 38951 ft | 423 kts | 235° |
| 2026-05-06 18:16 | 41.72019 | 2.81737 | 38943 ft | 423 kts | 235° |
| 2026-05-06 18:17 | 41.68559 | 2.75372 | 38960 ft | 423 kts | 235° |
| 2026-05-06 18:17 | 41.64995 | 2.69110 | 38956 ft | 423 kts | 233° |
| 2026-05-06 18:18 | 41.61364 | 2.62947 | 38948 ft | 428 kts | 233° |
| 2026-05-06 18:18 | 41.57706 | 2.56700 | 38945 ft | 426 kts | 233° |
| 2026-05-06 18:19 | 41.54057 | 2.50455 | 38945 ft | 426 kts | 233° |
| 2026-05-06 18:19 | 41.50419 | 2.44238 | 38944 ft | 424 kts | 233° |
| 2026-05-06 18:20 | 41.46785 | 2.38042 | 38943 ft | 424 kts | 233° |
| 2026-05-06 18:20 | 41.43138 | 2.31836 | 38942 ft | 425 kts | 233° |
| 2026-05-06 18:21 | 41.39490 | 2.25641 | 38946 ft | 425 kts | 233° |
| 2026-05-06 18:21 | 41.35832 | 2.19451 | 38934 ft | 425 kts | 233° |
| 2026-05-06 18:22 | 41.32513 | 2.12968 | 38910 ft | 423 kts | 243° |
| 2026-05-06 18:22 | 41.30327 | 2.05775 | 38941 ft | 422 kts | 253° |
| 2026-05-06 18:23 | 41.29240 | 1.98092 | 38941 ft | 423 kts | 260° |
| 2026-05-06 18:23 | 41.28374 | 1.90333 | 38954 ft | 424 kts | 260° |
| 2026-05-06 18:24 | 41.27477 | 1.82582 | 38939 ft | 424 kts | 260° |
| 2026-05-06 18:24 | 41.26579 | 1.74880 | 38942 ft | 424 kts | 260° |
| 2026-05-06 18:25 | 41.25669 | 1.67122 | 38938 ft | 425 kts | 259° |
| 2026-05-06 18:25 | 41.24754 | 1.59364 | 38938 ft | 424 kts | 259° |
| 2026-05-06 18:26 | 41.23835 | 1.51615 | 38938 ft | 425 kts | 259° |
| 2026-05-06 18:26 | 41.22909 | 1.43847 | 38925 ft | 425 kts | 259° |
| 2026-05-06 18:27 | 41.21973 | 1.36088 | 38926 ft | 426 kts | 259° |
| 2026-05-06 18:27 | 41.21036 | 1.28361 | 38932 ft | 426 kts | 259° |
| 2026-05-06 18:28 | 41.20092 | 1.20581 | 38943 ft | 426 kts | 259° |
| 2026-05-06 18:28 | 41.19145 | 1.12821 | 38935 ft | 426 kts | 259° |
| 2026-05-06 18:29 | 41.18190 | 1.05043 | 38931 ft | 427 kts | 259° |
| 2026-05-06 18:29 | 41.17229 | 0.97264 | 38930 ft | 427 kts | 259° |
| 2026-05-06 18:30 | 41.16270 | 0.89530 | 38926 ft | 427 kts | 259° |
| 2026-05-06 18:30 | 41.15299 | 0.81745 | 38923 ft | 427 kts | 259° |
| 2026-05-06 18:31 | 41.14320 | 0.73957 | 38919 ft | 428 kts | 259° |
| 2026-05-06 18:31 | 41.13336 | 0.66159 | 38914 ft | 428 kts | 259° |
| 2026-05-06 18:32 | 41.12347 | 0.58368 | 38921 ft | 428 kts | 259° |
| 2026-05-06 18:32 | 41.11351 | 0.50591 | 38921 ft | 428 kts | 259° |
| 2026-05-06 18:33 | 41.10351 | 0.42810 | 38923 ft | 428 kts | 259° |
| 2026-05-06 18:33 | 41.09346 | 0.35036 | 38925 ft | 428 kts | 259° |
| 2026-05-06 18:34 | 41.08337 | 0.27274 | 38926 ft | 427 kts | 259° |
| 2026-05-06 18:34 | 41.07329 | 0.19559 | 38930 ft | 427 kts | 259° |
| 2026-05-06 18:35 | 41.06310 | 0.11795 | 38931 ft | 427 kts | 259° |
| 2026-05-06 18:35 | 41.05286 | 0.04046 | 38929 ft | 427 kts | 259° |
| 2026-05-06 18:36 | 41.04257 | -0.03705 | 38930 ft | 427 kts | 259° |
| 2026-05-06 18:36 | 41.03220 | -0.11467 | 38928 ft | 428 kts | 259° |
| 2026-05-06 18:37 | 41.02355 | -0.17917 | 38932 ft | 428 kts | 259° |
| 2026-05-06 18:37 | 41.01078 | -0.26968 | 38933 ft | 427 kts | 256° |
| 2026-05-06 18:38 | 40.99344 | -0.34428 | 38933 ft | 427 kts | 250° |
| 2026-05-06 18:38 | 40.97319 | -0.41826 | 38938 ft | 427 kts | 250° |
| 2026-05-06 18:39 | 40.95309 | -0.49238 | 38944 ft | 428 kts | 250° |
| 2026-05-06 18:40 | 40.92288 | -0.60333 | 38942 ft | 428 kts | 250° |
| 2026-05-06 18:40 | 40.90934 | -0.65286 | 38943 ft | 428 kts | 250° |
| 2026-05-06 18:41 | 40.88249 | -0.75118 | 38947 ft | 426 kts | 250° |
| 2026-05-06 18:41 | 40.86330 | -0.82090 | 38951 ft | 427 kts | 250° |
| 2026-05-06 18:42 | 40.84318 | -0.89418 | 38953 ft | 427 kts | 250° |
| 2026-05-06 18:42 | 40.82287 | -0.96788 | 38955 ft | 427 kts | 250° |
| 2026-05-06 18:43 | 40.80242 | -1.04159 | 38958 ft | 427 kts | 250° |
| 2026-05-06 18:43 | 40.78194 | -1.11514 | 38950 ft | 427 kts | 250° |
| 2026-05-06 18:44 | 40.76135 | -1.18886 | 38949 ft | 431 kts | 250° |
| 2026-05-06 18:44 | 40.74058 | -1.26301 | 38952 ft | 430 kts | 250° |
| 2026-05-06 18:45 | 40.72333 | -1.32444 | 38949 ft | 430 kts | 250° |
| 2026-05-06 18:45 | 40.69912 | -1.41043 | 38947 ft | 432 kts | 249° |
| 2026-05-06 18:46 | 40.67840 | -1.48376 | 38945 ft | 416 kts | 249° |
| 2026-05-06 18:46 | 40.65798 | -1.55587 | 38952 ft | 427 kts | 249° |
| 2026-05-06 18:47 | 40.63695 | -1.62988 | 38952 ft | 433 kts | 249° |
| 2026-05-06 18:47 | 40.61582 | -1.70411 | 38951 ft | 432 kts | 249° |
| 2026-05-06 18:48 | 40.59466 | -1.77815 | 38945 ft | 432 kts | 249° |
| 2026-05-06 18:48 | 40.57362 | -1.85168 | 38951 ft | 432 kts | 249° |
| 2026-05-06 18:49 | 40.55235 | -1.92571 | 38945 ft | 433 kts | 249° |
| 2026-05-06 18:49 | 40.53093 | -2.00002 | 38938 ft | 435 kts | 249° |
| 2026-05-06 18:50 | 40.50947 | -2.07432 | 38939 ft | 434 kts | 249° |
| 2026-05-06 18:50 | 40.48797 | -2.14846 | 38926 ft | 434 kts | 249° |
| 2026-05-06 18:51 | 40.46641 | -2.22254 | 38934 ft | 434 kts | 249° |
| 2026-05-06 18:51 | 40.44494 | -2.29611 | 38935 ft | 434 kts | 249° |
| 2026-05-06 18:52 | 40.42324 | -2.37023 | 38923 ft | 435 kts | 249° |
| 2026-05-06 18:52 | 40.40148 | -2.44439 | 38921 ft | 436 kts | 249° |
| 2026-05-06 18:53 | 40.37966 | -2.51855 | 38925 ft | 436 kts | 249° |
| 2026-05-06 18:53 | 40.36109 | -2.59421 | 38923 ft | 436 kts | 254° |
| 2026-05-06 18:54 | 40.34470 | -2.67080 | 38923 ft | 436 kts | 254° |
| 2026-05-06 18:54 | 40.32811 | -2.74731 | 38922 ft | 437 kts | 254° |
| 2026-05-06 18:55 | 40.31142 | -2.82389 | 38920 ft | 437 kts | 254° |
| 2026-05-06 18:55 | 40.29467 | -2.90047 | 38925 ft | 437 kts | 254° |
| 2026-05-06 18:56 | 40.27788 | -2.97697 | 38920 ft | 437 kts | 253° |
| 2026-05-06 18:56 | 40.26105 | -3.05339 | 38925 ft | 437 kts | 253° |
| 2026-05-06 18:57 | 40.24427 | -3.12934 | 38919 ft | 437 kts | 254° |
| 2026-05-06 18:57 | 40.22734 | -3.20570 | 38910 ft | 437 kts | 253° |
| 2026-05-06 18:58 | 40.21034 | -3.28210 | 38912 ft | 437 kts | 253° |
| 2026-05-06 18:58 | 40.19325 | -3.35843 | 38911 ft | 437 kts | 253° |
| 2026-05-06 18:59 | 40.17618 | -3.43452 | 38912 ft | 436 kts | 253° |
| 2026-05-06 18:59 | 40.15903 | -3.51079 | 38907 ft | 437 kts | 253° |
| 2026-05-06 19:00 | 40.14475 | -3.57415 | 38906 ft | 437 kts | 253° |
| 2026-05-06 19:00 | 40.12756 | -3.65040 | 38905 ft | 437 kts | 253° |
| 2026-05-06 19:01 | 40.11029 | -3.72663 | 38908 ft | 437 kts | 253° |
| 2026-05-06 19:01 | 40.09294 | -3.80278 | 38899 ft | 437 kts | 253° |
| 2026-05-06 19:02 | 40.07552 | -3.87898 | 38899 ft | 438 kts | 253° |
| 2026-05-06 19:02 | 40.05815 | -3.95470 | 38901 ft | 438 kts | 253° |
| 2026-05-06 19:03 | 40.04061 | -4.03091 | 38893 ft | 438 kts | 253° |
| 2026-05-06 19:03 | 40.02302 | -4.10708 | 38895 ft | 438 kts | 253° |
| 2026-05-06 19:04 | 40.00536 | -4.18328 | 38890 ft | 438 kts | 253° |
| 2026-05-06 19:04 | 39.98768 | -4.25931 | 38898 ft | 438 kts | 253° |
| 2026-05-06 19:05 | 39.96996 | -4.33530 | 38893 ft | 438 kts | 253° |
| 2026-05-06 19:05 | 39.95386 | -4.41132 | 38893 ft | 438 kts | 256° |
| 2026-05-06 19:06 | 39.93877 | -4.48816 | 38889 ft | 437 kts | 256° |
| 2026-05-06 19:06 | 39.92334 | -4.56476 | 38881 ft | 437 kts | 255° |
| 2026-05-06 19:07 | 39.90770 | -4.64133 | 38889 ft | 437 kts | 255° |
| 2026-05-06 19:07 | 39.89199 | -4.71786 | 38877 ft | 437 kts | 255° |
| 2026-05-06 19:08 | 39.87623 | -4.79439 | 38876 ft | 438 kts | 255° |
| 2026-05-06 19:08 | 39.86043 | -4.87087 | 38874 ft | 438 kts | 255° |
| 2026-05-06 19:09 | 39.84457 | -4.94735 | 38879 ft | 438 kts | 255° |
| 2026-05-06 19:09 | 39.82864 | -5.02385 | 38873 ft | 438 kts | 255° |
| 2026-05-06 19:10 | 39.81268 | -5.10023 | 38868 ft | 438 kts | 255° |
| 2026-05-06 19:10 | 39.79667 | -5.17659 | 38868 ft | 438 kts | 255° |
| 2026-05-06 19:11 | 39.78058 | -5.25302 | 38871 ft | 438 kts | 255° |
| 2026-05-06 19:11 | 39.76457 | -5.32883 | 38866 ft | 438 kts | 255° |
| 2026-05-06 19:12 | 39.74841 | -5.40507 | 38875 ft | 437 kts | 255° |
| 2026-05-06 19:12 | 39.73219 | -5.48131 | 38864 ft | 437 kts | 255° |
| 2026-05-06 19:13 | 39.71594 | -5.55743 | 38858 ft | 437 kts | 255° |
| 2026-05-06 19:13 | 39.69964 | -5.63352 | 38861 ft | 437 kts | 255° |
| 2026-05-06 19:14 | 39.68330 | -5.70950 | 38858 ft | 437 kts | 255° |
| 2026-05-06 19:14 | 39.66690 | -5.78558 | 38855 ft | 438 kts | 254° |
| 2026-05-06 19:15 | 39.65042 | -5.86167 | 38855 ft | 438 kts | 255° |
| 2026-05-06 19:15 | 39.63390 | -5.93771 | 38859 ft | 438 kts | 254° |
| 2026-05-06 19:16 | 39.61744 | -6.01320 | 38858 ft | 438 kts | 254° |
| 2026-05-06 19:16 | 39.60080 | -6.08928 | 38851 ft | 438 kts | 254° |
| 2026-05-06 19:17 | 39.58413 | -6.16523 | 38862 ft | 438 kts | 254° |
| 2026-05-06 19:17 | 39.56742 | -6.24108 | 38862 ft | 438 kts | 254° |
| 2026-05-06 19:18 | 39.55064 | -6.31698 | 38853 ft | 437 kts | 254° |
| 2026-05-06 19:18 | 39.53383 | -6.39271 | 38864 ft | 437 kts | 253° |
| 2026-05-06 19:19 | 39.51246 | -6.46646 | 38852 ft | 438 kts | 246° |
| 2026-05-06 19:19 | 39.48547 | -6.53667 | 38849 ft | 439 kts | 244° |
| 2026-05-06 19:20 | 39.45829 | -6.60746 | 38848 ft | 439 kts | 244° |
| 2026-05-06 19:20 | 39.43103 | -6.67821 | 38849 ft | 439 kts | 244° |
| 2026-05-06 19:21 | 39.40376 | -6.74888 | 38865 ft | 439 kts | 244° |
| 2026-05-06 19:21 | 39.37645 | -6.81955 | 38852 ft | 439 kts | 244° |
| 2026-05-06 19:22 | 39.34914 | -6.89019 | 38864 ft | 439 kts | 244° |
| 2026-05-06 19:22 | 39.32175 | -6.96073 | 38861 ft | 439 kts | 244° |
| 2026-05-06 19:23 | 39.29429 | -7.03130 | 38853 ft | 439 kts | 244° |
| 2026-05-06 19:23 | 39.26510 | -7.10027 | 38696 ft | 436 kts | 241° |
| 2026-05-06 19:23 | 39.25007 | -7.13426 | 37985 ft | 436 kts | 241° |
| 2026-05-06 19:24 | 39.23503 | -7.16835 | 36869 ft | 438 kts | 241° |
| 2026-05-06 19:24 | 39.21990 | -7.20266 | 35549 ft | 441 kts | 240° |
| 2026-05-06 19:24 | 39.20476 | -7.23700 | 34199 ft | 441 kts | 240° |
| 2026-05-06 19:24 | 39.18959 | -7.27135 | 32625 ft | 441 kts | 240° |
| 2026-05-06 19:25 | 39.17433 | -7.30580 | 30859 ft | 444 kts | 239° |
| 2026-05-06 19:25 | 39.15890 | -7.34056 | 28983 ft | 448 kts | 239° |
| 2026-05-06 19:25 | 39.14342 | -7.37535 | 27579 ft | 445 kts | 239° |
| 2026-05-06 19:25 | 39.12831 | -7.40922 | 26550 ft | 439 kts | 239° |
| 2026-05-06 19:26 | 39.11316 | -7.44311 | 25602 ft | 432 kts | 239° |
| 2026-05-06 19:26 | 39.09847 | -7.47606 | 25113 ft | 416 kts | 239° |
| 2026-05-06 19:26 | 39.08437 | -7.50783 | 24558 ft | 402 kts | 239° |
| 2026-05-06 19:26 | 39.07051 | -7.53902 | 23605 ft | 401 kts | 239° |
| 2026-05-06 19:27 | 39.05667 | -7.57003 | 22696 ft | 396 kts | 239° |
| 2026-05-06 19:27 | 39.04310 | -7.60040 | 22132 ft | 388 kts | 239° |
| 2026-05-06 19:27 | 39.02957 | -7.63059 | 21648 ft | 390 kts | 239° |
| 2026-05-06 19:27 | 39.01607 | -7.66070 | 21184 ft | 387 kts | 239° |
| 2026-05-06 19:28 | 39.00266 | -7.69057 | 20732 ft | 385 kts | 239° |
| 2026-05-06 19:28 | 38.98929 | -7.72032 | 20339 ft | 383 kts | 239° |
| 2026-05-06 19:28 | 38.97598 | -7.74991 | 19963 ft | 380 kts | 239° |
| 2026-05-06 19:28 | 38.96278 | -7.77924 | 19590 ft | 379 kts | 239° |
| 2026-05-06 19:29 | 38.94956 | -7.80857 | 19258 ft | 379 kts | 239° |
| 2026-05-06 19:29 | 38.93641 | -7.83773 | 18944 ft | 375 kts | 239° |
| 2026-05-06 19:29 | 38.92351 | -7.86632 | 18652 ft | 374 kts | 239° |
| 2026-05-06 19:29 | 38.91045 | -7.89520 | 18336 ft | 374 kts | 239° |
| 2026-05-06 19:30 | 38.89736 | -7.92412 | 18008 ft | 372 kts | 239° |
| 2026-05-06 19:30 | 38.88445 | -7.95264 | 17650 ft | 367 kts | 239° |
| 2026-05-06 19:30 | 38.87160 | -7.98097 | 17315 ft | 367 kts | 239° |
| 2026-05-06 19:30 | 38.85871 | -8.00934 | 16966 ft | 367 kts | 239° |
| 2026-05-06 19:31 | 38.84595 | -8.03745 | 16620 ft | 363 kts | 239° |
| 2026-05-06 19:31 | 38.83335 | -8.06519 | 16289 ft | 359 kts | 239° |
| 2026-05-06 19:31 | 38.80800 | -8.12089 | 15629 ft | 359 kts | 239° |
| 2026-05-06 19:32 | 38.79550 | -8.14832 | 15311 ft | 355 kts | 239° |
| 2026-05-06 19:32 | 38.78303 | -8.17564 | 14989 ft | 356 kts | 239° |
| 2026-05-06 19:32 | 38.77045 | -8.20298 | 14682 ft | 358 kts | 239° |
| 2026-05-06 19:32 | 38.75785 | -8.23033 | 14366 ft | 352 kts | 239° |
| 2026-05-06 19:33 | 38.74558 | -8.25717 | 14055 ft | 347 kts | 239° |
| 2026-05-06 19:33 | 38.73653 | -8.28553 | 13761 ft | 351 kts | 252° |
| 2026-05-06 19:33 | 38.72992 | -8.31573 | 13437 ft | 352 kts | 253° |
| 2026-05-06 19:33 | 38.72361 | -8.34596 | 13128 ft | 349 kts | 254° |
| 2026-05-06 19:34 | 38.71730 | -8.37589 | 12821 ft | 346 kts | 253° |
| 2026-05-06 19:34 | 38.71096 | -8.40550 | 12495 ft | 348 kts | 253° |
| 2026-05-06 19:34 | 38.70446 | -8.43534 | 12193 ft | 349 kts | 253° |
| 2026-05-06 19:34 | 38.69788 | -8.46533 | 11886 ft | 347 kts | 253° |
| 2026-05-06 19:35 | 38.69137 | -8.49492 | 11592 ft | 345 kts | 253° |
| 2026-05-06 19:35 | 38.68494 | -8.52406 | 11278 ft | 331 kts | 253° |
| 2026-05-06 19:35 | 38.67889 | -8.55144 | 10984 ft | 310 kts | 253° |
| 2026-05-06 19:35 | 38.67318 | -8.57715 | 10687 ft | 291 kts | 253° |
| 2026-05-06 19:36 | 38.66775 | -8.60170 | 10391 ft | 285 kts | 254° |
| 2026-05-06 19:36 | 38.66408 | -8.62662 | 10105 ft | 286 kts | 261° |
| 2026-05-06 19:36 | 38.66125 | -8.65176 | 9817 ft | 283 kts | 261° |
| 2026-05-06 19:36 | 38.65857 | -8.67668 | 9504 ft | 284 kts | 262° |
| 2026-05-06 19:37 | 38.65582 | -8.70173 | 9195 ft | 284 kts | 261° |
| 2026-05-06 19:37 | 38.65301 | -8.72662 | 8885 ft | 282 kts | 262° |
| 2026-05-06 19:37 | 38.65017 | -8.75104 | 8579 ft | 280 kts | 261° |
| 2026-05-06 19:37 | 38.64819 | -8.76771 | 8371 ft | 280 kts | 261° |
| 2026-05-06 19:38 | 38.64432 | -8.80021 | 7978 ft | 279 kts | 261° |
| 2026-05-06 19:38 | 38.64144 | -8.82466 | 7703 ft | 277 kts | 261° |
| 2026-05-06 19:38 | 38.63859 | -8.84902 | 7429 ft | 277 kts | 261° |
| 2026-05-06 19:38 | 38.63573 | -8.87338 | 7143 ft | 276 kts | 261° |
| 2026-05-06 19:39 | 38.63287 | -8.89763 | 6875 ft | 275 kts | 261° |
| 2026-05-06 19:39 | 38.63005 | -8.92142 | 6591 ft | 263 kts | 261° |
| 2026-05-06 19:39 | 38.62741 | -8.94377 | 6296 ft | 246 kts | 261° |
| 2026-05-06 19:39 | 38.62491 | -8.96476 | 6009 ft | 233 kts | 261° |
| 2026-05-06 19:40 | 38.62252 | -8.98473 | 5756 ft | 222 kts | 262° |
| 2026-05-06 19:40 | 38.62022 | -9.00396 | 5496 ft | 215 kts | 262° |
| 2026-05-06 19:40 | 38.61797 | -9.02260 | 5250 ft | 209 kts | 263° |
| 2026-05-06 19:40 | 38.61580 | -9.04083 | 4995 ft | 205 kts | 263° |
| 2026-05-06 19:41 | 38.61369 | -9.05880 | 4725 ft | 203 kts | 263° |
| 2026-05-06 19:41 | 38.61152 | -9.07659 | 4401 ft | 201 kts | 265° |
| 2026-05-06 19:41 | 38.60944 | -9.09419 | 4111 ft | 198 kts | 265° |
| 2026-05-06 19:41 | 38.60744 | -9.11112 | 4017 ft | 186 kts | 264° |
| 2026-05-06 19:42 | 38.60555 | -9.12683 | 4014 ft | 172 kts | 265° |
| 2026-05-06 19:42 | 38.60377 | -9.14170 | 4021 ft | 172 kts | 265° |
| 2026-05-06 19:42 | 38.60192 | -9.15645 | 4017 ft | 166 kts | 266° |
| 2026-05-06 19:42 | 38.60014 | -9.17108 | 4016 ft | 167 kts | 267° |
| 2026-05-06 19:43 | 38.59847 | -9.18556 | 4027 ft | 168 kts | 267° |
| 2026-05-06 19:43 | 38.59680 | -9.20059 | 4017 ft | 169 kts | 265° |
| 2026-05-06 19:43 | 38.59760 | -9.21457 | 4017 ft | 153 kts | 297° |
| 2026-05-06 19:43 | 38.60437 | -9.22380 | 4014 ft | 139 kts | 334° |
| 2026-05-06 19:44 | 38.61386 | -9.22579 | 4011 ft | 139 kts | 6° |
| 2026-05-06 19:44 | 38.62312 | -9.22103 | 4029 ft | 151 kts | 24° |
| 2026-05-06 19:44 | 38.63232 | -9.21532 | 4007 ft | 141 kts | 20° |
| 2026-05-06 19:44 | 38.64130 | -9.20997 | 3871 ft | 150 kts | 23° |
| 2026-05-06 19:45 | 38.65086 | -9.20371 | 3522 ft | 155 kts | 21° |
| 2026-05-06 19:45 | 38.65720 | -9.19974 | 3302 ft | 151 kts | 20° |
| 2026-05-06 19:45 | 38.66658 | -9.19472 | 2949 ft | 141 kts | 18° |
| 2026-05-06 19:45 | 38.67537 | -9.19019 | 2638 ft | 130 kts | 18° |
| 2026-05-06 19:46 | 38.68355 | -9.18584 | 2350 ft | 126 kts | 17° |
| 2026-05-06 19:46 | 38.69441 | -9.18060 | 1875 ft | 125 kts | 15° |
| 2026-05-06 19:46 | 38.69997 | -9.17817 | 1720 ft | 123 kts | 13° |
| 2026-05-06 19:46 | 38.70791 | -9.17479 | 1540 ft | 121 kts | 13° |
| 2026-05-06 19:47 | 38.71869 | -9.16947 | 1287 ft | 122 kts | 18° |
| 2026-05-06 19:47 | 38.72375 | -9.16655 | 1222 ft | 122 kts | 18° |
| 2026-05-06 19:47 | 38.73156 | -9.16219 | 1150 ft | 119 kts | 18° |
| 2026-05-06 19:47 | 38.73966 | -9.15808 | 901 ft | 130 kts | 16° |
| 2026-05-06 19:48 | 38.74762 | -9.15393 | 689 ft | 116 kts | 18° |
| 2026-05-06 19:48 | 38.75549 | -9.14966 | 575 ft | 130 kts | 19° |
| 2026-05-06 19:48 | 38.76387 | -9.14521 | 426 ft | 139 kts | 18° |
| 2026-05-06 19:48 | 38.77227 | -9.14069 | 358 ft | 121 kts | 18° |
| 2026-05-06 19:49 | 38.77919 | -9.13731 | 357 ft | 94 kts | 22° |
| 2026-05-06 19:49 | 38.78296 | -9.13461 | 361 ft | 42 kts | 43° |
| 2026-05-06 19:49 | 38.78372 | -9.13334 | 359 ft | 0 kts | 71° |
| 2026-05-06 19:50 | 38.78374 | -9.13324 | 360 ft | 3 kts | 74° |
| 2026-05-06 19:51 | 38.78372 | -9.13283 | 354 ft | 5 kts | 106° |
| 2026-05-06 19:51 | 38.78342 | -9.13263 | 357 ft | 6 kts | 156° |
| 2026-05-06 19:51 | 38.78300 | -9.13272 | 358 ft | 8 kts | 190° |
| 2026-05-06 19:51 | 38.78233 | -9.13301 | 361 ft | 12 kts | 203° |
| 2026-05-06 19:52 | 38.78133 | -9.13361 | 361 ft | 19 kts | 205° |
| 2026-05-06 19:52 | 38.77998 | -9.13440 | 362 ft | 23 kts | 204° |
| 2026-05-06 19:52 | 38.77859 | -9.13514 | 357 ft | 21 kts | 201° |
| 2026-05-06 19:52 | 38.77740 | -9.13572 | 360 ft | 19 kts | 200° |
| 2026-05-06 19:53 | 38.77599 | -9.13580 | 354 ft | 22 kts | 165° |
| 2026-05-06 19:53 | 38.77437 | -9.13533 | 360 ft | 26 kts | 169° |
| 2026-05-06 19:53 | 38.77249 | -9.13489 | 360 ft | 29 kts | 169° |
| 2026-05-06 19:53 | 38.77037 | -9.13430 | 356 ft | 33 kts | 167° |
| 2026-05-06 19:54 | 38.76888 | -9.13390 | 360 ft | 21 kts | 168° |
| 2026-05-06 19:54 | 38.76787 | -9.13366 | 356 ft | 14 kts | 173° |
| 2026-05-06 19:54 | 38.76721 | -9.13398 | 363 ft | 12 kts | 210° |
| 2026-05-06 19:54 | 38.76658 | -9.13460 | 363 ft | 9 kts | 236° |
| 2026-05-06 19:55 | 38.76637 | -9.13553 | 355 ft | 13 kts | 261° |
| 2026-05-06 19:55 | 38.76601 | -9.13650 | 361 ft | 10 kts | 211° |
| 2026-05-06 19:55 | 38.76551 | -9.13693 | 359 ft | 9 kts | 237° |
| 2026-05-06 19:55 | 38.76532 | -9.13783 | 357 ft | 8 kts | 257° |
| 2026-05-06 19:56 | 38.76501 | -9.13810 | 359 ft | 2 kts | 196° |
| 2026-05-06 19:56 | 38.76476 | -9.13808 | 358 ft | 5 kts | 173° |
| 2026-05-06 19:56 | 38.76459 | -9.13804 | 358 ft | 0 kts | 169° |